sensor_id;sensor_type;location;lat;lon;timestamp;P1;durP1;ratioP1;P2;durP2;ratioP2
76053;SDS011;64752;48.870;9.082;2023-06-04T00:00:07;9.90;;;5.80;;
76053;SDS011;64752;48.870;9.082;2023-06-04T00:02:33;9.60;;;5.60;;
76053;SDS011;64752;48.870;9.082;2023-06-04T00:04:58;10.52;;;5.63;;
76053;SDS011;64752;48.870;9.082;2023-06-04T00:07:24;8.43;;;5.32;;
76053;SDS011;64752;48.870;9.082;2023-06-04T00:09:49;9.30;;;5.32;;
76053;SDS011;64752;48.870;9.082;2023-06-04T00:12:14;9.90;;;5.20;;
76053;SDS011;64752;48.870;9.082;2023-06-04T00:14:40;8.30;;;5.15;;
76053;SDS011;64752;48.870;9.082;2023-06-04T00:17:06;11.45;;;5.20;;
76053;SDS011;64752;48.870;9.082;2023-06-04T00:19:33;10.48;;;5.30;;
76053;SDS011;64752;48.870;9.082;2023-06-04T00:21:59;8.32;;;4.93;;
76053;SDS011;64752;48.870;9.082;2023-06-04T00:24:24;8.50;;;6.18;;
76053;SDS011;64752;48.870;9.082;2023-06-04T00:26:49;8.60;;;5.72;;
76053;SDS011;64752;48.870;9.082;2023-06-04T00:29:15;8.50;;;6.25;;
76053;SDS011;64752;48.870;9.082;2023-06-04T00:31:40;9.63;;;5.97;;
76053;SDS011;64752;48.870;9.082;2023-06-04T00:34:05;9.70;;;5.68;;
76053;SDS011;64752;48.870;9.082;2023-06-04T00:36:31;9.50;;;5.70;;
76053;SDS011;64752;48.870;9.082;2023-06-04T00:38:56;11.50;;;5.38;;
76053;SDS011;64752;48.870;9.082;2023-06-04T00:41:21;9.98;;;5.85;;
76053;SDS011;64752;48.870;9.082;2023-06-04T00:43:47;11.18;;;5.70;;
76053;SDS011;64752;48.870;9.082;2023-06-04T00:46:22;10.05;;;5.93;;
76053;SDS011;64752;48.870;9.082;2023-06-04T00:48:50;9.60;;;5.80;;
76053;SDS011;64752;48.870;9.082;2023-06-04T00:51:15;11.60;;;6.07;;
76053;SDS011;64752;48.870;9.082;2023-06-04T00:53:41;9.45;;;6.15;;
76053;SDS011;64752;48.870;9.082;2023-06-04T00:56:07;12.18;;;7.18;;
76053;SDS011;64752;48.870;9.082;2023-06-04T00:58:33;8.63;;;6.25;;
76053;SDS011;64752;48.870;9.082;2023-06-04T01:01:03;9.93;;;5.82;;
76053;SDS011;64752;48.870;9.082;2023-06-04T01:03:30;9.35;;;6.25;;
76053;SDS011;64752;48.870;9.082;2023-06-04T01:06:04;9.73;;;5.50;;
76053;SDS011;64752;48.870;9.082;2023-06-04T01:08:34;13.15;;;6.03;;
76053;SDS011;64752;48.870;9.082;2023-06-04T01:11:01;8.02;;;5.40;;
76053;SDS011;64752;48.870;9.082;2023-06-04T01:13:27;10.20;;;5.65;;
76053;SDS011;64752;48.870;9.082;2023-06-04T01:15:52;8.30;;;5.20;;
76053;SDS011;64752;48.870;9.082;2023-06-04T01:18:19;9.45;;;5.22;;
76053;SDS011;64752;48.870;9.082;2023-06-04T01:21:07;8.40;;;5.07;;
76053;SDS011;64752;48.870;9.082;2023-06-04T01:23:39;8.63;;;5.25;;
76053;SDS011;64752;48.870;9.082;2023-06-04T01:26:10;8.40;;;5.28;;
76053;SDS011;64752;48.870;9.082;2023-06-04T01:28:37;9.15;;;4.88;;
76053;SDS011;64752;48.870;9.082;2023-06-04T01:31:03;9.23;;;4.85;;
76053;SDS011;64752;48.870;9.082;2023-06-04T01:33:32;13.23;;;5.07;;
76053;SDS011;64752;48.870;9.082;2023-06-04T01:35:58;9.50;;;5.30;;
76053;SDS011;64752;48.870;9.082;2023-06-04T01:38:23;10.82;;;4.78;;
76053;SDS011;64752;48.870;9.082;2023-06-04T01:40:49;8.07;;;4.93;;
76053;SDS011;64752;48.870;9.082;2023-06-04T01:43:15;9.20;;;4.70;;
76053;SDS011;64752;48.870;9.082;2023-06-04T01:45:41;7.78;;;4.93;;
76053;SDS011;64752;48.870;9.082;2023-06-04T01:48:06;8.38;;;4.88;;
76053;SDS011;64752;48.870;9.082;2023-06-04T01:50:32;7.53;;;4.85;;
76053;SDS011;64752;48.870;9.082;2023-06-04T01:52:58;11.73;;;6.15;;
76053;SDS011;64752;48.870;9.082;2023-06-04T01:55:24;8.95;;;5.70;;
76053;SDS011;64752;48.870;9.082;2023-06-04T01:57:54;8.85;;;6.53;;
76053;SDS011;64752;48.870;9.082;2023-06-04T02:00:20;9.32;;;6.18;;
76053;SDS011;64752;48.870;9.082;2023-06-04T02:02:45;11.43;;;6.30;;
76053;SDS011;64752;48.870;9.082;2023-06-04T02:05:12;9.88;;;5.93;;
76053;SDS011;64752;48.870;9.082;2023-06-04T02:07:38;10.20;;;5.43;;
76053;SDS011;64752;48.870;9.082;2023-06-04T02:12:35;10.10;;;5.80;;
76053;SDS011;64752;48.870;9.082;2023-06-04T02:15:02;9.65;;;5.60;;
76053;SDS011;64752;48.870;9.082;2023-06-04T02:17:27;8.77;;;5.18;;
76053;SDS011;64752;48.870;9.082;2023-06-04T02:19:57;10.60;;;5.30;;
76053;SDS011;64752;48.870;9.082;2023-06-04T02:22:24;8.70;;;4.93;;
76053;SDS011;64752;48.870;9.082;2023-06-04T02:24:50;10.13;;;4.88;;
76053;SDS011;64752;48.870;9.082;2023-06-04T02:27:16;10.68;;;4.82;;
76053;SDS011;64752;48.870;9.082;2023-06-04T02:29:41;9.50;;;4.70;;
76053;SDS011;64752;48.870;9.082;2023-06-04T02:32:07;8.68;;;4.95;;
76053;SDS011;64752;48.870;9.082;2023-06-04T02:34:33;10.93;;;4.75;;
76053;SDS011;64752;48.870;9.082;2023-06-04T02:37:02;8.63;;;4.78;;
76053;SDS011;64752;48.870;9.082;2023-06-04T02:39:28;8.95;;;4.57;;
76053;SDS011;64752;48.870;9.082;2023-06-04T02:41:53;7.60;;;4.65;;
76053;SDS011;64752;48.870;9.082;2023-06-04T02:44:19;6.45;;;4.55;;
76053;SDS011;64752;48.870;9.082;2023-06-04T02:46:45;8.27;;;4.65;;
76053;SDS011;64752;48.870;9.082;2023-06-04T02:49:10;7.85;;;4.22;;
76053;SDS011;64752;48.870;9.082;2023-06-04T02:51:41;7.70;;;4.40;;
76053;SDS011;64752;48.870;9.082;2023-06-04T02:54:07;10.05;;;4.55;;
76053;SDS011;64752;48.870;9.082;2023-06-04T02:56:33;6.18;;;4.22;;
76053;SDS011;64752;48.870;9.082;2023-06-04T02:59:00;5.88;;;4.10;;
76053;SDS011;64752;48.870;9.082;2023-06-04T03:01:26;7.95;;;3.95;;
76053;SDS011;64752;48.870;9.082;2023-06-04T03:03:52;7.57;;;4.00;;
76053;SDS011;64752;48.870;9.082;2023-06-04T03:06:19;5.45;;;3.60;;
76053;SDS011;64752;48.870;9.082;2023-06-04T03:08:48;8.27;;;4.15;;
76053;SDS011;64752;48.870;9.082;2023-06-04T03:11:17;9.48;;;4.57;;
76053;SDS011;64752;48.870;9.082;2023-06-04T03:13:44;8.32;;;3.72;;
76053;SDS011;64752;48.870;9.082;2023-06-04T03:16:09;8.13;;;4.70;;
76053;SDS011;64752;48.870;9.082;2023-06-04T03:18:39;8.20;;;4.47;;
76053;SDS011;64752;48.870;9.082;2023-06-04T03:21:05;6.97;;;4.35;;
76053;SDS011;64752;48.870;9.082;2023-06-04T03:23:31;7.47;;;4.93;;
76053;SDS011;64752;48.870;9.082;2023-06-04T03:25:57;11.38;;;4.60;;
76053;SDS011;64752;48.870;9.082;2023-06-04T03:28:22;7.90;;;4.55;;
76053;SDS011;64752;48.870;9.082;2023-06-04T03:30:48;7.45;;;4.32;;
76053;SDS011;64752;48.870;9.082;2023-06-04T03:33:13;6.22;;;4.15;;
76053;SDS011;64752;48.870;9.082;2023-06-04T03:35:41;6.30;;;4.28;;
76053;SDS011;64752;48.870;9.082;2023-06-04T03:38:07;8.52;;;4.78;;
76053;SDS011;64752;48.870;9.082;2023-06-04T03:40:32;7.78;;;4.07;;
76053;SDS011;64752;48.870;9.082;2023-06-04T03:42:58;9.02;;;4.18;;
76053;SDS011;64752;48.870;9.082;2023-06-04T03:45:23;5.25;;;3.80;;
76053;SDS011;64752;48.870;9.082;2023-06-04T03:47:49;7.03;;;4.43;;
76053;SDS011;64752;48.870;9.082;2023-06-04T03:50:14;7.53;;;4.55;;
76053;SDS011;64752;48.870;9.082;2023-06-04T03:52:39;6.63;;;3.70;;
76053;SDS011;64752;48.870;9.082;2023-06-04T03:55:05;6.78;;;3.97;;
76053;SDS011;64752;48.870;9.082;2023-06-04T03:57:30;6.95;;;4.70;;
76053;SDS011;64752;48.870;9.082;2023-06-04T03:59:57;6.13;;;3.70;;
76053;SDS011;64752;48.870;9.082;2023-06-04T04:02:22;6.95;;;3.75;;
76053;SDS011;64752;48.870;9.082;2023-06-04T04:04:48;7.93;;;3.83;;
76053;SDS011;64752;48.870;9.082;2023-06-04T04:07:14;6.18;;;3.80;;
76053;SDS011;64752;48.870;9.082;2023-06-04T04:09:40;6.00;;;3.47;;
76053;SDS011;64752;48.870;9.082;2023-06-04T04:12:06;6.28;;;3.55;;
76053;SDS011;64752;48.870;9.082;2023-06-04T04:14:31;5.60;;;3.00;;
76053;SDS011;64752;48.870;9.082;2023-06-04T04:16:57;8.07;;;3.00;;
76053;SDS011;64752;48.870;9.082;2023-06-04T04:19:22;5.63;;;3.05;;
76053;SDS011;64752;48.870;9.082;2023-06-04T04:21:47;6.20;;;3.20;;
76053;SDS011;64752;48.870;9.082;2023-06-04T04:24:34;5.28;;;3.00;;
76053;SDS011;64752;48.870;9.082;2023-06-04T04:27:00;6.82;;;3.17;;
76053;SDS011;64752;48.870;9.082;2023-06-04T04:29:29;7.38;;;2.72;;
76053;SDS011;64752;48.870;9.082;2023-06-04T04:31:58;7.80;;;2.97;;
76053;SDS011;64752;48.870;9.082;2023-06-04T04:34:26;6.05;;;3.05;;
76053;SDS011;64752;48.870;9.082;2023-06-04T04:36:51;8.00;;;3.00;;
76053;SDS011;64752;48.870;9.082;2023-06-04T04:39:23;5.57;;;2.78;;
76053;SDS011;64752;48.870;9.082;2023-06-04T04:41:50;7.00;;;3.05;;
76053;SDS011;64752;48.870;9.082;2023-06-04T04:44:16;4.87;;;3.30;;
76053;SDS011;64752;48.870;9.082;2023-06-04T04:46:41;6.18;;;3.30;;
76053;SDS011;64752;48.870;9.082;2023-06-04T04:49:06;5.55;;;3.10;;
76053;SDS011;64752;48.870;9.082;2023-06-04T04:51:32;7.18;;;3.10;;
76053;SDS011;64752;48.870;9.082;2023-06-04T04:53:58;9.20;;;3.13;;
76053;SDS011;64752;48.870;9.082;2023-06-04T04:56:25;9.00;;;3.45;;
76053;SDS011;64752;48.870;9.082;2023-06-04T04:58:51;4.03;;;2.50;;
76053;SDS011;64752;48.870;9.082;2023-06-04T05:01:17;3.97;;;2.22;;
76053;SDS011;64752;48.870;9.082;2023-06-04T05:03:42;5.25;;;2.63;;
76053;SDS011;64752;48.870;9.082;2023-06-04T05:06:07;6.45;;;2.72;;
76053;SDS011;64752;48.870;9.082;2023-06-04T05:08:33;6.30;;;2.73;;
76053;SDS011;64752;48.870;9.082;2023-06-04T05:10:58;3.47;;;2.45;;
76053;SDS011;64752;48.870;9.082;2023-06-04T05:13:24;5.17;;;2.50;;
76053;SDS011;64752;48.870;9.082;2023-06-04T05:15:49;5.30;;;2.80;;
76053;SDS011;64752;48.870;9.082;2023-06-04T05:18:17;6.35;;;2.60;;
76053;SDS011;64752;48.870;9.082;2023-06-04T05:20:45;5.55;;;2.13;;
76053;SDS011;64752;48.870;9.082;2023-06-04T05:23:11;7.20;;;2.60;;
76053;SDS011;64752;48.870;9.082;2023-06-04T05:25:37;4.88;;;2.13;;
76053;SDS011;64752;48.870;9.082;2023-06-04T05:28:03;7.07;;;2.70;;
76053;SDS011;64752;48.870;9.082;2023-06-04T05:30:28;7.83;;;2.20;;
76053;SDS011;64752;48.870;9.082;2023-06-04T05:32:53;7.13;;;2.40;;
76053;SDS011;64752;48.870;9.082;2023-06-04T05:35:19;5.00;;;2.50;;
76053;SDS011;64752;48.870;9.082;2023-06-04T05:37:45;3.72;;;2.53;;
76053;SDS011;64752;48.870;9.082;2023-06-04T05:40:11;3.63;;;2.10;;
76053;SDS011;64752;48.870;9.082;2023-06-04T05:42:37;5.20;;;2.00;;
76053;SDS011;64752;48.870;9.082;2023-06-04T05:45:03;4.73;;;2.17;;
76053;SDS011;64752;48.870;9.082;2023-06-04T05:47:30;4.07;;;2.03;;
76053;SDS011;64752;48.870;9.082;2023-06-04T05:49:55;3.40;;;2.07;;
76053;SDS011;64752;48.870;9.082;2023-06-04T05:52:21;4.90;;;2.17;;
76053;SDS011;64752;48.870;9.082;2023-06-04T05:54:46;3.90;;;2.03;;
76053;SDS011;64752;48.870;9.082;2023-06-04T05:57:11;3.03;;;1.80;;
76053;SDS011;64752;48.870;9.082;2023-06-04T05:59:37;4.93;;;2.00;;
76053;SDS011;64752;48.870;9.082;2023-06-04T06:02:02;6.73;;;2.10;;
76053;SDS011;64752;48.870;9.082;2023-06-04T06:04:28;2.80;;;2.10;;
76053;SDS011;64752;48.870;9.082;2023-06-04T06:06:53;5.00;;;2.03;;
76053;SDS011;64752;48.870;9.082;2023-06-04T06:11:45;7.47;;;2.05;;
76053;SDS011;64752;48.870;9.082;2023-06-04T06:14:10;3.50;;;1.90;;
76053;SDS011;64752;48.870;9.082;2023-06-04T06:16:36;4.43;;;1.97;;
76053;SDS011;64752;48.870;9.082;2023-06-04T06:19:01;4.13;;;2.13;;
76053;SDS011;64752;48.870;9.082;2023-06-04T06:21:27;4.27;;;1.70;;
76053;SDS011;64752;48.870;9.082;2023-06-04T06:23:53;4.30;;;1.97;;
76053;SDS011;64752;48.870;9.082;2023-06-04T06:26:19;3.33;;;1.85;;
76053;SDS011;64752;48.870;9.082;2023-06-04T06:28:44;3.73;;;2.00;;
76053;SDS011;64752;48.870;9.082;2023-06-04T06:31:10;3.43;;;2.07;;
76053;SDS011;64752;48.870;9.082;2023-06-04T06:33:35;4.30;;;1.73;;
76053;SDS011;64752;48.870;9.082;2023-06-04T06:36:05;3.45;;;1.90;;
76053;SDS011;64752;48.870;9.082;2023-06-04T06:38:31;3.05;;;1.92;;
76053;SDS011;64752;48.870;9.082;2023-06-04T06:40:57;4.27;;;2.10;;
76053;SDS011;64752;48.870;9.082;2023-06-04T06:43:22;5.23;;;2.00;;
76053;SDS011;64752;48.870;9.082;2023-06-04T06:45:47;5.27;;;2.23;;
76053;SDS011;64752;48.870;9.082;2023-06-04T06:48:13;4.90;;;2.00;;
76053;SDS011;64752;48.870;9.082;2023-06-04T06:50:38;4.80;;;2.10;;
76053;SDS011;64752;48.870;9.082;2023-06-04T06:53:04;2.77;;;1.77;;
76053;SDS011;64752;48.870;9.082;2023-06-04T06:55:29;4.50;;;1.93;;
76053;SDS011;64752;48.870;9.082;2023-06-04T06:57:54;5.80;;;2.10;;
76053;SDS011;64752;48.870;9.082;2023-06-04T07:00:20;3.17;;;1.90;;
76053;SDS011;64752;48.870;9.082;2023-06-04T07:02:45;4.67;;;1.90;;
76053;SDS011;64752;48.870;9.082;2023-06-04T07:05:11;4.70;;;2.03;;
76053;SDS011;64752;48.870;9.082;2023-06-04T07:07:38;4.95;;;1.80;;
76053;SDS011;64752;48.870;9.082;2023-06-04T07:10:04;2.60;;;1.93;;
76053;SDS011;64752;48.870;9.082;2023-06-04T07:12:29;3.63;;;1.80;;
76053;SDS011;64752;48.870;9.082;2023-06-04T07:14:55;5.50;;;2.10;;
76053;SDS011;64752;48.870;9.082;2023-06-04T07:17:21;5.28;;;2.50;;
76053;SDS011;64752;48.870;9.082;2023-06-04T07:19:46;8.45;;;2.00;;
76053;SDS011;64752;48.870;9.082;2023-06-04T07:22:12;4.87;;;2.10;;
76053;SDS011;64752;48.870;9.082;2023-06-04T07:24:37;4.47;;;2.07;;
76053;SDS011;64752;48.870;9.082;2023-06-04T07:27:09;5.33;;;2.00;;
76053;SDS011;64752;48.870;9.082;2023-06-04T07:29:36;3.03;;;1.80;;
76053;SDS011;64752;48.870;9.082;2023-06-04T07:32:01;4.23;;;2.17;;
76053;SDS011;64752;48.870;9.082;2023-06-04T07:34:27;2.80;;;1.70;;
76053;SDS011;64752;48.870;9.082;2023-06-04T07:36:52;5.67;;;2.23;;
76053;SDS011;64752;48.870;9.082;2023-06-04T07:39:17;3.87;;;2.00;;
76053;SDS011;64752;48.870;9.082;2023-06-04T07:41:43;4.27;;;1.90;;
76053;SDS011;64752;48.870;9.082;2023-06-04T07:44:08;4.10;;;2.00;;
76053;SDS011;64752;48.870;9.082;2023-06-04T07:46:34;3.93;;;2.00;;
76053;SDS011;64752;48.870;9.082;2023-06-04T07:48:59;3.67;;;1.93;;
76053;SDS011;64752;48.870;9.082;2023-06-04T07:51:24;4.83;;;2.07;;
76053;SDS011;64752;48.870;9.082;2023-06-04T07:53:50;5.18;;;1.92;;
76053;SDS011;64752;48.870;9.082;2023-06-04T07:56:16;2.93;;;2.13;;
76053;SDS011;64752;48.870;9.082;2023-06-04T07:58:41;3.80;;;1.90;;
76053;SDS011;64752;48.870;9.082;2023-06-04T08:01:06;6.00;;;2.17;;
76053;SDS011;64752;48.870;9.082;2023-06-04T08:03:32;2.72;;;1.80;;
76053;SDS011;64752;48.870;9.082;2023-06-04T08:05:57;4.53;;;1.83;;
76053;SDS011;64752;48.870;9.082;2023-06-04T08:08:23;3.07;;;1.90;;
76053;SDS011;64752;48.870;9.082;2023-06-04T08:10:48;4.10;;;2.05;;
76053;SDS011;64752;48.870;9.082;2023-06-04T08:13:14;5.68;;;2.25;;
76053;SDS011;64752;48.870;9.082;2023-06-04T08:18:06;5.57;;;2.05;;
76053;SDS011;64752;48.870;9.082;2023-06-04T08:20:34;2.80;;;1.80;;
76053;SDS011;64752;48.870;9.082;2023-06-04T08:23:00;3.70;;;2.10;;
76053;SDS011;64752;48.870;9.082;2023-06-04T08:25:25;3.27;;;1.83;;
76053;SDS011;64752;48.870;9.082;2023-06-04T08:27:50;1.92;;;1.70;;
76053;SDS011;64752;48.870;9.082;2023-06-04T08:32:41;4.35;;;2.30;;
76053;SDS011;64752;48.870;9.082;2023-06-04T08:35:07;3.07;;;1.87;;
76053;SDS011;64752;48.870;9.082;2023-06-04T08:37:33;7.43;;;2.40;;
76053;SDS011;64752;48.870;9.082;2023-06-04T08:42:30;4.50;;;2.00;;
76053;SDS011;64752;48.870;9.082;2023-06-04T08:44:58;6.22;;;2.20;;
76053;SDS011;64752;48.870;9.082;2023-06-04T08:47:26;4.88;;;1.88;;
76053;SDS011;64752;48.870;9.082;2023-06-04T08:49:58;3.60;;;1.73;;
76053;SDS011;64752;48.870;9.082;2023-06-04T08:52:28;5.95;;;2.00;;
76053;SDS011;64752;48.870;9.082;2023-06-04T08:54:54;3.75;;;2.40;;
76053;SDS011;64752;48.870;9.082;2023-06-04T08:57:19;4.57;;;1.88;;
76053;SDS011;64752;48.870;9.082;2023-06-04T08:59:45;4.20;;;2.17;;
76053;SDS011;64752;48.870;9.082;2023-06-04T09:02:12;2.78;;;2.00;;
76053;SDS011;64752;48.870;9.082;2023-06-04T09:04:39;4.32;;;2.58;;
76053;SDS011;64752;48.870;9.082;2023-06-04T09:07:05;4.53;;;2.20;;
76053;SDS011;64752;48.870;9.082;2023-06-04T09:09:33;3.83;;;2.13;;
76053;SDS011;64752;48.870;9.082;2023-06-04T09:12:03;5.03;;;2.10;;
76053;SDS011;64752;48.870;9.082;2023-06-04T09:14:31;3.65;;;2.08;;
76053;SDS011;64752;48.870;9.082;2023-06-04T09:16:56;4.57;;;2.30;;
76053;SDS011;64752;48.870;9.082;2023-06-04T09:19:23;4.22;;;2.20;;
76053;SDS011;64752;48.870;9.082;2023-06-04T09:24:16;5.68;;;2.30;;
76053;SDS011;64752;48.870;9.082;2023-06-04T09:26:43;4.55;;;2.28;;
76053;SDS011;64752;48.870;9.082;2023-06-04T09:29:08;5.63;;;2.00;;
76053;SDS011;64752;48.870;9.082;2023-06-04T09:31:34;3.97;;;2.17;;
76053;SDS011;64752;48.870;9.082;2023-06-04T09:34:02;3.47;;;2.28;;
76053;SDS011;64752;48.870;9.082;2023-06-04T09:38:56;3.95;;;2.20;;
76053;SDS011;64752;48.870;9.082;2023-06-04T09:41:22;5.15;;;2.17;;
76053;SDS011;64752;48.870;9.082;2023-06-04T09:43:47;2.90;;;2.15;;
76053;SDS011;64752;48.870;9.082;2023-06-04T09:46:15;2.40;;;2.03;;
76053;SDS011;64752;48.870;9.082;2023-06-04T09:48:42;4.07;;;2.20;;
76053;SDS011;64752;48.870;9.082;2023-06-04T09:51:12;3.25;;;1.95;;
76053;SDS011;64752;48.870;9.082;2023-06-04T09:53:53;5.07;;;2.43;;
76053;SDS011;64752;48.870;9.082;2023-06-04T09:56:19;3.75;;;2.08;;
76053;SDS011;64752;48.870;9.082;2023-06-04T09:58:46;5.10;;;2.25;;
76053;SDS011;64752;48.870;9.082;2023-06-04T10:01:19;3.28;;;1.90;;
76053;SDS011;64752;48.870;9.082;2023-06-04T10:03:46;2.97;;;2.08;;
76053;SDS011;64752;48.870;9.082;2023-06-04T10:06:16;4.18;;;2.15;;
76053;SDS011;64752;48.870;9.082;2023-06-04T10:08:43;4.72;;;2.13;;
76053;SDS011;64752;48.870;9.082;2023-06-04T10:11:11;4.45;;;2.25;;
76053;SDS011;64752;48.870;9.082;2023-06-04T10:13:43;3.35;;;2.20;;
76053;SDS011;64752;48.870;9.082;2023-06-04T10:16:13;5.45;;;2.53;;
76053;SDS011;64752;48.870;9.082;2023-06-04T10:18:40;4.82;;;2.30;;
76053;SDS011;64752;48.870;9.082;2023-06-04T10:21:06;3.50;;;2.08;;
76053;SDS011;64752;48.870;9.082;2023-06-04T10:23:33;3.65;;;2.35;;
76053;SDS011;64752;48.870;9.082;2023-06-04T10:28:25;5.65;;;2.53;;
76053;SDS011;64752;48.870;9.082;2023-06-04T10:30:51;6.68;;;2.20;;
76053;SDS011;64752;48.870;9.082;2023-06-04T10:33:17;4.65;;;2.33;;
76053;SDS011;64752;48.870;9.082;2023-06-04T10:35:51;5.20;;;2.38;;
76053;SDS011;64752;48.870;9.082;2023-06-04T10:38:19;8.35;;;2.50;;
76053;SDS011;64752;48.870;9.082;2023-06-04T10:40:47;3.63;;;2.05;;
76053;SDS011;64752;48.870;9.082;2023-06-04T10:43:13;6.10;;;2.75;;
76053;SDS011;64752;48.870;9.082;2023-06-04T10:45:41;8.18;;;2.60;;
76053;SDS011;64752;48.870;9.082;2023-06-04T10:48:08;5.90;;;2.80;;
76053;SDS011;64752;48.870;9.082;2023-06-04T10:50:36;7.03;;;2.30;;
76053;SDS011;64752;48.870;9.082;2023-06-04T10:53:13;3.42;;;2.40;;
76053;SDS011;64752;48.870;9.082;2023-06-04T10:55:48;3.97;;;2.60;;
76053;SDS011;64752;48.870;9.082;2023-06-04T10:58:14;3.85;;;2.20;;
76053;SDS011;64752;48.870;9.082;2023-06-04T11:00:41;4.15;;;2.10;;
76053;SDS011;64752;48.870;9.082;2023-06-04T11:03:11;5.50;;;2.90;;
76053;SDS011;64752;48.870;9.082;2023-06-04T11:05:39;6.97;;;2.47;;
76053;SDS011;64752;48.870;9.082;2023-06-04T11:08:07;3.78;;;2.63;;
76053;SDS011;64752;48.870;9.082;2023-06-04T11:10:35;10.45;;;2.70;;
76053;SDS011;64752;48.870;9.082;2023-06-04T11:13:05;4.18;;;2.55;;
76053;SDS011;64752;48.870;9.082;2023-06-04T11:15:37;5.97;;;2.55;;
76053;SDS011;64752;48.870;9.082;2023-06-04T11:18:13;3.85;;;2.50;;
76053;SDS011;64752;48.870;9.082;2023-06-04T11:20:40;5.60;;;3.40;;
76053;SDS011;64752;48.870;9.082;2023-06-04T11:23:07;6.72;;;4.15;;
76053;SDS011;64752;48.870;9.082;2023-06-04T11:25:33;8.88;;;2.60;;
76053;SDS011;64752;48.870;9.082;2023-06-04T11:27:59;3.80;;;2.40;;
76053;SDS011;64752;48.870;9.082;2023-06-04T11:30:26;4.95;;;2.60;;
76053;SDS011;64752;48.870;9.082;2023-06-04T11:33:02;8.02;;;2.53;;
76053;SDS011;64752;48.870;9.082;2023-06-04T11:35:28;5.32;;;2.60;;
76053;SDS011;64752;48.870;9.082;2023-06-04T11:37:54;6.20;;;2.58;;
76053;SDS011;64752;48.870;9.082;2023-06-04T11:40:20;3.92;;;2.30;;
76053;SDS011;64752;48.870;9.082;2023-06-04T11:42:47;6.70;;;2.50;;
76053;SDS011;64752;48.870;9.082;2023-06-04T11:45:13;4.93;;;2.30;;
76053;SDS011;64752;48.870;9.082;2023-06-04T11:47:46;4.03;;;2.35;;
76053;SDS011;64752;48.870;9.082;2023-06-04T11:50:12;3.90;;;2.30;;
76053;SDS011;64752;48.870;9.082;2023-06-04T11:52:38;3.70;;;2.55;;
76053;SDS011;64752;48.870;9.082;2023-06-04T11:55:05;7.10;;;2.90;;
76053;SDS011;64752;48.870;9.082;2023-06-04T11:57:33;3.90;;;2.40;;
76053;SDS011;64752;48.870;9.082;2023-06-04T11:59:58;8.55;;;2.63;;
76053;SDS011;64752;48.870;9.082;2023-06-04T12:02:24;4.78;;;2.50;;
76053;SDS011;64752;48.870;9.082;2023-06-04T12:04:50;4.85;;;2.60;;
76053;SDS011;64752;48.870;9.082;2023-06-04T12:07:19;4.13;;;2.42;;
76053;SDS011;64752;48.870;9.082;2023-06-04T12:09:49;3.10;;;2.28;;
76053;SDS011;64752;48.870;9.082;2023-06-04T12:12:14;3.20;;;2.28;;
76053;SDS011;64752;48.870;9.082;2023-06-04T12:14:46;3.80;;;2.60;;
76053;SDS011;64752;48.870;9.082;2023-06-04T12:17:11;4.60;;;2.80;;
76053;SDS011;64752;48.870;9.082;2023-06-04T12:19:46;4.10;;;2.30;;
76053;SDS011;64752;48.870;9.082;2023-06-04T12:22:15;4.65;;;2.70;;
76053;SDS011;64752;48.870;9.082;2023-06-04T12:24:49;5.70;;;2.65;;
76053;SDS011;64752;48.870;9.082;2023-06-04T12:27:19;2.60;;;2.35;;
76053;SDS011;64752;48.870;9.082;2023-06-04T12:30:05;5.03;;;2.95;;
76053;SDS011;64752;48.870;9.082;2023-06-04T12:32:34;5.05;;;3.03;;
76053;SDS011;64752;48.870;9.082;2023-06-04T12:35:00;6.15;;;2.50;;
76053;SDS011;64752;48.870;9.082;2023-06-04T12:37:26;3.47;;;2.33;;
76053;SDS011;64752;48.870;9.082;2023-06-04T12:39:52;3.15;;;2.20;;
76053;SDS011;64752;48.870;9.082;2023-06-04T12:42:19;4.35;;;2.15;;
76053;SDS011;64752;48.870;9.082;2023-06-04T12:44:45;9.35;;;2.72;;
76053;SDS011;64752;48.870;9.082;2023-06-04T12:49:36;3.50;;;2.20;;
76053;SDS011;64752;48.870;9.082;2023-06-04T12:52:02;3.95;;;2.30;;
76053;SDS011;64752;48.870;9.082;2023-06-04T12:56:53;9.80;;;3.05;;
76053;SDS011;64752;48.870;9.082;2023-06-04T12:59:21;7.85;;;2.75;;
76053;SDS011;64752;48.870;9.082;2023-06-04T13:01:47;4.32;;;2.13;;
76053;SDS011;64752;48.870;9.082;2023-06-04T13:06:38;3.77;;;2.30;;
76053;SDS011;64752;48.870;9.082;2023-06-04T13:11:34;3.72;;;2.15;;
76053;SDS011;64752;48.870;9.082;2023-06-04T13:14:04;4.00;;;2.50;;
76053;SDS011;64752;48.870;9.082;2023-06-04T13:18:54;6.20;;;2.30;;
76053;SDS011;64752;48.870;9.082;2023-06-04T13:23:45;5.57;;;2.90;;
76053;SDS011;64752;48.870;9.082;2023-06-04T13:28:35;7.00;;;2.83;;
76053;SDS011;64752;48.870;9.082;2023-06-04T13:33:26;6.03;;;2.40;;
76053;SDS011;64752;48.870;9.082;2023-06-04T13:35:52;4.47;;;2.75;;
76053;SDS011;64752;48.870;9.082;2023-06-04T13:38:18;4.57;;;2.53;;
76053;SDS011;64752;48.870;9.082;2023-06-04T13:40:43;3.67;;;2.58;;
76053;SDS011;64752;48.870;9.082;2023-06-04T13:45:34;6.50;;;3.00;;
76053;SDS011;64752;48.870;9.082;2023-06-04T13:50:29;5.55;;;2.72;;
76053;SDS011;64752;48.870;9.082;2023-06-04T13:52:55;4.97;;;2.95;;
76053;SDS011;64752;48.870;9.082;2023-06-04T13:55:20;4.83;;;2.80;;
76053;SDS011;64752;48.870;9.082;2023-06-04T13:57:46;5.83;;;2.80;;
76053;SDS011;64752;48.870;9.082;2023-06-04T14:02:38;4.90;;;2.67;;
76053;SDS011;64752;48.870;9.082;2023-06-04T14:05:04;3.78;;;2.63;;
76053;SDS011;64752;48.870;9.082;2023-06-04T14:09:55;3.63;;;2.50;;
76053;SDS011;64752;48.870;9.082;2023-06-04T14:12:21;4.73;;;2.60;;
76053;SDS011;64752;48.870;9.082;2023-06-04T14:14:47;4.80;;;2.78;;
76053;SDS011;64752;48.870;9.082;2023-06-04T14:17:13;5.47;;;3.10;;
76053;SDS011;64752;48.870;9.082;2023-06-04T14:19:38;4.50;;;2.67;;
76053;SDS011;64752;48.870;9.082;2023-06-04T14:24:30;6.83;;;3.00;;
76053;SDS011;64752;48.870;9.082;2023-06-04T14:26:55;4.70;;;3.20;;
76053;SDS011;64752;48.870;9.082;2023-06-04T14:29:21;4.70;;;2.53;;
76053;SDS011;64752;48.870;9.082;2023-06-04T14:31:46;3.47;;;3.00;;
76053;SDS011;64752;48.870;9.082;2023-06-04T14:34:11;4.60;;;2.90;;
76053;SDS011;64752;48.870;9.082;2023-06-04T14:36:37;4.37;;;2.77;;
76053;SDS011;64752;48.870;9.082;2023-06-04T14:39:02;3.97;;;2.53;;
76053;SDS011;64752;48.870;9.082;2023-06-04T14:41:27;7.30;;;2.70;;
76053;SDS011;64752;48.870;9.082;2023-06-04T14:43:53;9.10;;;3.10;;
76053;SDS011;64752;48.870;9.082;2023-06-04T14:46:18;5.00;;;2.97;;
76053;SDS011;64752;48.870;9.082;2023-06-04T14:48:43;4.93;;;2.87;;
76053;SDS011;64752;48.870;9.082;2023-06-04T14:51:09;4.43;;;2.93;;
76053;SDS011;64752;48.870;9.082;2023-06-04T14:53:35;5.78;;;2.60;;
76053;SDS011;64752;48.870;9.082;2023-06-04T14:56:04;3.50;;;2.40;;
76053;SDS011;64752;48.870;9.082;2023-06-04T14:58:32;3.67;;;2.42;;
76053;SDS011;64752;48.870;9.082;2023-06-04T15:01:01;4.93;;;2.70;;
76053;SDS011;64752;48.870;9.082;2023-06-04T15:03:28;4.00;;;2.58;;
76053;SDS011;64752;48.870;9.082;2023-06-04T15:05:54;4.53;;;2.47;;
76053;SDS011;64752;48.870;9.082;2023-06-04T15:08:19;4.73;;;2.80;;
76053;SDS011;64752;48.870;9.082;2023-06-04T15:10:45;5.67;;;2.73;;
76053;SDS011;64752;48.870;9.082;2023-06-04T15:13:11;3.80;;;2.72;;
76053;SDS011;64752;48.870;9.082;2023-06-04T15:15:36;9.77;;;2.93;;
76053;SDS011;64752;48.870;9.082;2023-06-04T15:18:01;2.50;;;2.20;;
76053;SDS011;64752;48.870;9.082;2023-06-04T15:20:27;5.93;;;2.23;;
76053;SDS011;64752;48.870;9.082;2023-06-04T15:22:53;4.50;;;2.55;;
76053;SDS011;64752;48.870;9.082;2023-06-04T15:25:19;5.53;;;2.70;;
76053;SDS011;64752;48.870;9.082;2023-06-04T15:27:45;3.22;;;2.30;;
76053;SDS011;64752;48.870;9.082;2023-06-04T15:30:10;2.93;;;2.10;;
76053;SDS011;64752;48.870;9.082;2023-06-04T15:32:36;3.27;;;2.30;;
76053;SDS011;64752;48.870;9.082;2023-06-04T15:35:01;3.20;;;2.17;;